Información del aeropuerto LEZL

Información de pista
Pista 09 Longitud 11024 ft Anchura 148 ft
Elevación 83 ft Umbral 0 ft Rumbo 90
Pista 27 Longitud 11024 ft Anchura 148 ft
Elevación 111 ft Umbral 0 ft Rumbo 270
Frecuencias del aeropuerto
Tipo APP Nombre APP Frecuencia 120 MHZ
Tipo ATIS Nombre ATIS Frecuencia 118.175 MHZ
Tipo GND Nombre GND Frecuencia 121.7 MHZ
Tipo TWR Nombre TWR Frecuencia 118.1 MHZ
Radioayudas del aeropuerto
Tipo NDB Nombre Sevilla Frecuencia 420 KHZ
Tipo VOR-DME Nombre Sevilla Frecuencia 113700 KHZ
Información meteorológica del aeropuerto y NOTAM
ADDS - METARS form results

(0326 UTC 28 February 2021)
Data provider http://aviationweather.gov/metar/data/
 
METAR text: LEZL 280300Z AUTO VRB01KT CAVOK 09/08 Q1019
Conditions at: LEZL (SEVILLA (CIV/MIL, ES) observed 0300 UTC 28 February 2021
Temperature: 9.0°C (48°F)
Dewpoint: 8.0°C (46°F) [RH = 93%]
Pressure (altimeter): 30.09 inches Hg (1019.0 mb)
Winds: variable direction winds at 1 MPH (1 knots; 0.5 m/s)
Visibility: 6 or more miles (10+ km)
Ceiling: ceiling and visibility are OK
Clouds: unknown
Weather: no significant weather observed at this time

METAR text: LEZL 280230Z AUTO 04005KT CAVOK 09/08 Q1019
Conditions at: LEZL (SEVILLA (CIV/MIL, ES) observed 0230 UTC 28 February 2021
Temperature: 9.0°C (48°F)
Dewpoint: 8.0°C (46°F) [RH = 93%]
Pressure (altimeter): 30.09 inches Hg (1019.0 mb)
Winds: from the NE (40 degrees) at 6 MPH (5 knots; 2.6 m/s)
Visibility: 6 or more miles (10+ km)
Ceiling: ceiling and visibility are OK
Clouds: unknown
Weather: no significant weather observed at this time

Forecast for: LEZL (SEVILLA (CIV/MIL, ES)
Text: TAF LEZL 280200Z 2803/0103 04005KT CAVOK TX20/2815Z TN07/2807Z
Forecast period: 0300 to 0800 UTC 28 February 2021
Forecast type: FROM: standard forecast or significant change
Winds: from the NE (40 degrees) at 6 MPH (5 knots; 2.6 m/s)
Visibility: 6 or more miles (10+ km)
Ceiling: unknown
Clouds: missing
Weather: no significant weather forecast for this period
Text: BECMG 2808/2810 11012KT
Forecast period: 0800 to 1700 UTC 28 February 2021
Forecast type: BECOMING: Conditions expected to become as follows by 1000 UTC 28 February 2021
Winds: from the ESE (110 degrees) at 14 MPH (12 knots; 6.2 m/s)
Visibility: 6 or more miles (10+ km)
Ceiling: unknown
Clouds: missing
Weather: no significant weather forecast for this period
Text: BECMG 2817/2819 VRB03KT
Forecast period: 1700 UTC 28 February 2021 to 0300 UTC 01 March 2021
Forecast type: BECOMING: Conditions expected to become as follows by 1900 UTC 28 February 2021
Winds: variable direction winds at 3 MPH (3 knots; 1.5 m/s)
Visibility: 6 or more miles (10+ km)
Ceiling: unknown
Clouds: missing
Weather: no significant weather forecast for this period